Warm Springs Summit, Nevada Weather observations

Data are for observation ending at time listed.
 Day   Time    Ave.   Ave.  Ave.  Vector   Max.   Stn.    Total    Solar   Ave.  
  of    of     Air    Rel.  Wind   Wind    Wind   Baro.  Precip.   Rad.    Soil  
Year   Day     Temp.  Hum.  Speed  Dir.    Gust   Pres.                    Temp. 
2014   (PST)    F      %     mph   deg.    mph     mb.     in.     W/m2     F   
------------------------------------------------------------------------------
 302    8:20   52.2    24    5.8    42      7.5   779.0    0.00     377    53.0
 302    8:30   52.8    24    6.2    45      7.6   779.0    0.00     406    53.0
 302    8:40   52.9    24    6.0    44      7.7   779.1    0.00     433    53.0
 302    8:50   53.3    24    5.5    34      7.6   779.1    0.00     459    53.0
 302    9:00   53.5    23    6.1    38      8.6   779.1    0.00     485    53.1
 302    9:10   53.8    22    5.8    38      8.2   779.2    0.00     508    53.2
 302    9:20   54.3    21    6.0    38      8.5   779.2    0.00     531    53.3
 302    9:30   54.2    21    6.2    33      8.8   779.3    0.00     552    53.4
 302    9:40   54.2    22    6.4    32      9.0   779.3    0.00     571    53.5
 302    9:50   54.3    22    7.1    33     10.6   779.4    0.00     590    53.6
 302   10:00   55.3    21    6.3    34      9.6   779.5    0.00     606    53.8
 302   10:10   56.2    21    5.6    37      9.1   779.5    0.00     622    53.9
 302   10:20   56.1    21    7.0    37     10.3   779.5    0.00     635    54.1
 302   10:30   56.0    21    6.9    41     10.1   779.4    0.00     647    54.3
 302   10:40   56.0    22    6.5    44      9.6   779.4    0.00     657    54.5
 302   10:50   56.5    21    7.2    46     10.9   779.3    0.00     666    54.7
 302   11:00   56.1    21    7.5    46     10.5   779.2    0.00     672    55.0
 302   11:10   56.2    21    7.4    47     10.6   779.2    0.00     677    55.2
 302   11:20   56.5    21    7.3    48     10.1   779.1    0.00     680    55.4
 302   11:30   57.3    21    6.9    50     10.3   779.0    0.00     682    55.7
 302   11:40   57.8    20    7.4    54     10.4   778.9    0.00     681    55.9
 302   11:50   57.7    20    7.2    49     10.4   778.8    0.00     679    56.2
 302   12:00   57.6    20    7.2    49      9.8   778.7    0.00     675    56.5
 302   12:10   57.5    20    6.9    44      9.6   778.6    0.00     669    56.7
 302   12:20   58.3    19    6.2    46      9.2   778.5    0.00     661    57.0
 302   12:30   58.4    19    5.5    47      7.6   778.5    0.00     652    57.3
 302   12:40   59.2    18    4.9    58      7.1   778.4    0.00     641    57.5
 302   12:50   60.6    17    6.3    80      9.9   778.3    0.00     629    57.8
 302   13:00   61.0    17    5.7    76     10.2   778.2    0.00     615    58.1
 302   13:10   61.3    16    5.3    78      9.7   778.1    0.00     598    58.3
 302   13:20   61.2    16    5.0    70      8.7   778.0    0.00     581    58.6
 302   13:30   61.6    15    4.7    70      8.2   778.0    0.00     562    58.9
 302   13:40   62.9    15    5.2   114      8.4   778.0    0.00     542    59.1
 302   13:50   61.6    15    5.5   113      9.5   777.9    0.00     520    59.4
 302   14:00   61.4    16    6.4   107      9.1   777.9    0.00     496    59.6
 302   14:10   61.9    15    6.8   106     10.6   777.8    0.00     472    59.8
 302   14:20   62.4    15    5.4    98      7.6   777.8    0.00     446    60.1
 302   14:30   61.9    15    6.6   113      9.2   777.8    0.00     420    60.3
 302   14:40   61.4    15    6.6   119      9.4   777.8    0.00     392    60.5
 302   14:50   61.4    15    5.7   115      9.2   777.8    0.00     363    60.7
 302   15:00   61.2    15    6.8   108      9.5   777.8    0.00     333    60.9
 302   15:10   61.5    15    5.6   121     10.9   777.8    0.00     302    61.1
 302   15:20   61.2    15    6.8   127      9.0   777.8    0.00     271    61.2
 302   15:30   61.1    16    5.0   116      7.4   777.7    0.00     240    61.4
 302   15:40   60.8    16    4.6   105      7.3   777.6    0.00     209    61.5
 302   15:50   60.6    17    5.0   113      6.8   777.6    0.00     179    61.6
 302   16:00   60.2    17    3.8    94      5.9   777.5    0.00     148    61.7
 302   16:10   59.5    18    5.0   109      6.3   777.4    0.00     112    61.8
 302   16:20   59.0    18    4.5   115      5.2   777.3    0.00      73    61.9
 302   16:30   58.6    18    4.4   119      6.0   777.3    0.00      36    61.9
 302   16:40   58.2    18    4.5   105      6.2   777.3    0.00      17    62.0
 302   16:50   57.6    19    4.1   102      5.5   777.3    0.00       5    62.0
 302   17:00   56.9    19    5.6   122      8.3   777.3    0.00       2    62.0
 302   17:10   56.8    19    5.7   143      8.0   777.4    0.00       0    62.0
 302   17:20   56.8    19    5.5   155      7.6   777.5    0.00       0    61.9
 302   17:30   56.7    19    6.3   162      8.4   777.5    0.00       0    61.9
 302   17:40   56.5    19    7.4   162      8.8   777.5    0.00       0    61.9
 302   17:50   56.5    19    6.4   191      7.9   777.5    0.00       0    61.8
 302   18:00   56.4    19    7.4   215      9.6   777.6    0.00       0    61.7
 302   18:10   56.8    19    8.0   230     10.9   777.6    0.00       0    61.6
 302   18:20   56.8    19    8.5   222     10.8   777.5    0.00       0    61.6
 302   18:30   56.6    19    9.8   213     11.8   777.5    0.00       0    61.4
 302   18:40   56.7    19   10.2   191     13.0   777.5    0.00       0    61.4
 302   18:50   56.4    19    9.8   192     13.0   777.4    0.00       0    61.2
 302   19:00   56.5    19    9.3   202     11.6   777.5    0.00       0    61.1
 302   19:10   56.8    18    8.3   194     10.6   777.5    0.00       0    61.0
 302   19:20   56.4    19    7.7   194      8.5   777.6    0.00       0    60.9
 302   19:30   56.1    19    7.2   201      8.7   777.6    0.00       0    60.8
 302   19:40   55.9    19    7.5   215      9.0   777.6    0.00       0    60.7
 302   19:50   55.7    20    8.5   209     10.3   777.6    0.00       0    60.5
 302   20:00   55.7    20    9.0   205     10.6   777.7    0.00       0    60.4
 302   20:10   55.7    20    8.4   223     10.6   777.8    0.00       0    60.3
 302   20:20   55.9    20    8.0   231      9.1   777.9    0.00       0    60.2
 302   20:30   56.2    20    7.6   230      9.0   777.9    0.00       0    60.1
 302   20:40   56.2    20    6.5   232      7.6   777.9    0.00       0    59.9
 302   20:50   56.3    22    6.0   241      7.1   778.0    0.00       0    59.8
 302   21:00   56.2    22    5.7   229      7.0   778.0    0.00       0    59.7
 302   21:10   55.9    22    5.5   227      6.7   778.1    0.00       0    59.6
 302   21:20   55.7    22    6.4   229      8.7   778.1    0.00       0    59.5
 302   21:30   55.1    22    8.1   248      9.4   778.2    0.00       0    59.3
 302   21:40   55.6    22    6.2   254      7.3   778.2    0.00       0    59.2
 302   21:50   55.7    22    5.7   249      7.3   778.1    0.00       0    59.1
 302   22:00   55.5    22    5.7   258      6.3   778.1    0.00       0    59.0
 302   22:10   55.5    21    4.9   257      6.2   778.0    0.00       0    58.9
 302   22:20   55.7    21    4.9   253      5.6   777.9    0.00       0    58.7
 302   22:30   55.7    20    5.3   252      6.2   777.9    0.00       0    58.6
 302   22:40   55.6    20    5.4   266      6.3   778.0    0.00       0    58.5
 302   22:50   55.2    20    6.6   264      7.9   778.0    0.00       0    58.4
 302   23:00   54.6    21    7.3   273      8.0   778.0    0.00       0    58.3
 302   23:10   54.1    21    8.0   263     10.3   778.0    0.00       0    58.2
 302   23:20   54.2    21    9.0   246     12.2   777.9    0.00       0    58.0
 302   23:30   54.2    21   10.2   242     12.0   777.9    0.00       0    57.9
 302   23:40   54.1    22   10.4   243     12.2   777.9    0.00       0    57.8
 302   23:50   54.2    22   10.7   247     13.1   777.9    0.00       0    57.7
 303    0:00   54.0    22    9.9   251     11.7   777.9    0.00       0    57.6
 303    0:10   54.2    21    9.1   251     11.2   777.9    0.00       0    57.5
 303    0:20   54.2    21    9.6   251     11.4   777.8    0.00       0    57.4
 303    0:30   54.2    21    8.9   253     11.0   777.8    0.00       0    57.3
 303    0:40   54.2    21    8.4   252     11.7   777.8    0.00       0    57.2
 303    0:50   54.2    21    7.7   248      9.5   777.7    0.00       0    57.1
 303    1:00   54.2    20    7.6   241      9.0   777.7    0.00       0    57.0
 303    1:10   54.4    20    7.2   238      8.5   777.6    0.00       0    56.9
 303    1:20   54.3    20    5.8   240      7.6   777.5    0.00       0    56.8
 303    1:30   53.7    20    4.0   225      5.9   777.5    0.00       0    56.7
 303    1:40   54.1    20    2.7   237      3.7   777.5    0.00       0    56.6
 303    1:50   54.1    20    1.9   223      3.4   777.5    0.00       0    56.5
 303    2:00   53.2    21    3.1    58      6.1   777.4    0.00       0    56.4
 303    2:10   52.9    22    4.6    63      6.5   777.3    0.00       0    56.3
 303    2:20   52.7    22    5.0    63      6.5   777.2    0.00       0    56.2
 303    2:30   52.9    22    4.7    66      7.9   777.2    0.00       0    56.2
 303    2:40   52.5    23    4.9    61      6.0   777.1    0.00       0    56.1
 303    2:50   52.5    22    4.8    82      5.4   777.1    0.00       0    56.0
 303    3:00   52.4    23    5.3    90      7.0   777.0    0.00       0    55.9
 303    3:10   52.3    23    6.4    92      7.9   777.0    0.00       0    55.8
 303    3:20   52.3    22    5.3   100      7.1   777.0    0.00       0    55.7
 303    3:30   51.9    22    4.7   122      6.5   776.9    0.00       0    55.6
 303    3:40   52.0    21    5.3   137      7.0   776.9    0.00       0    55.5
 303    3:50   51.9    22    6.3   144      7.2   776.9    0.00       0    55.4
 303    4:00   51.9    22    6.3   144      8.2   776.9    0.00       0    55.3
 303    4:10   51.9    22    5.5   145      7.3   776.9    0.00       0    55.2
 303    4:20   51.7    22    5.8   140      9.2   776.9    0.00       0    55.1
 303    4:30   52.0    22    5.7   131      8.2   776.9    0.00       0    55.1
 303    4:40   51.8    22    5.6   132      6.9   776.9    0.00       0    55.0
 303    4:50   51.6    22    5.8   119      7.4   776.8    0.00       0    54.9
 303    5:00   51.0    22    7.0   114      8.7   776.8    0.00       0    54.8
 303    5:10   50.9    23    7.1   112      8.7   776.7    0.00       0    54.7
 303    5:20   50.4    23    7.3   104      8.9   776.7    0.00       0    54.6
 303    5:30   50.2    24    6.5    85      8.4   776.7    0.00       0    54.6
 303    5:40   50.1    24    6.8    90      9.0   776.6    0.00       0    54.5
 303    5:50   50.0    24    8.6   104     10.4   776.6    0.00       0    54.4
 303    6:00   50.2    23    8.4   101     10.3   776.7    0.00       2    54.3
 303    6:10   50.0    23    8.8    99     10.2   776.7    0.00       6    54.3
 303    6:20   50.4    23    9.2    94     11.0   776.7    0.00      12    54.2
 303    6:30   50.7    24    9.1    85     10.8   776.7    0.00      31    54.1
 303    6:40   51.0    23   10.3    94     12.6   776.7    0.00      59    54.0
 303    6:50   51.9    22   11.4   105     14.7   776.8    0.00      96    54.0
 303    7:00   52.3    22   13.2   106     15.8   776.8    0.00     137    53.9
 303    7:10   52.7    22   13.8   109     16.0   776.8    0.00     170    53.8
 303    7:20   53.0    21   14.7   112     17.0   776.9    0.00     202    53.8
 303    7:30   52.8    22   13.8   108     16.6   776.9    0.00     238    53.7
 303    7:40   52.8    22   13.1   107     16.7   777.1    0.00     269    53.7
 303    7:50   52.9    22   11.6   100     18.9   777.1    0.00     271    53.7
 303    8:00   52.8    21   13.0   118     18.9   777.2    0.00     266    53.6
 303    8:10   52.9    21   12.2   120     17.4   777.2    0.00     297    53.6

Return to Warm Springs Summit, Nevada graphs page.


Western Regional Climate Center,wrcc@dri.edu